createdAt,value
2022-09-11T00:02:38.805Z,15.73
2022-09-11T00:05:25.852Z,16.92
2022-09-11T00:08:14.732Z,16.02
2022-09-11T00:11:27.213Z,14.73
2022-09-11T00:14:14.174Z,14.27
2022-09-11T00:16:59.307Z,14.73
2022-09-11T00:19:44.747Z,14.95
2022-09-11T00:22:30.184Z,14.63
2022-09-11T00:25:15.449Z,14.98
2022-09-11T00:28:01.981Z,13.82
2022-09-11T00:30:56.606Z,13.68
2022-09-11T00:33:42.322Z,13.07
2022-09-11T00:36:31.144Z,12.43
2022-09-11T00:39:16.524Z,11.77
2022-09-11T00:42:02.424Z,11.88
2022-09-11T00:44:47.946Z,12.25
2022-09-11T00:47:34.028Z,13.38
2022-09-11T00:50:23.428Z,13.13
2022-09-11T00:53:10.073Z,13.15
2022-09-11T00:55:59.951Z,14.95
2022-09-11T00:58:48.591Z,16.17
2022-09-11T01:01:34.246Z,15.35
2022-09-11T01:04:21.568Z,16.17
2022-09-11T01:07:06.956Z,16.05
2022-09-11T01:09:53.592Z,16.15
2022-09-11T01:12:38.829Z,14.82
2022-09-11T01:15:38.786Z,15.50
2022-09-11T01:18:32.418Z,15.60
2022-09-11T01:21:46.431Z,16.60
2022-09-11T01:24:56.001Z,24.83
2022-09-11T01:28:03.259Z,20.30
2022-09-11T01:30:54.327Z,20.13
2022-09-11T01:34:19.366Z,21.50
2022-09-11T01:37:13.893Z,21.75
2022-09-11T01:40:05.406Z,25.70
2022-09-11T01:42:59.714Z,23.10
2022-09-11T01:45:47.178Z,22.95
2022-09-11T01:49:01.348Z,22.88
2022-09-11T01:51:52.309Z,22.00
2022-09-11T01:54:45.037Z,23.92
2022-09-11T01:57:43.890Z,21.92
2022-09-11T02:00:32.224Z,22.33
2022-09-11T02:03:23.057Z,24.52
2022-09-11T02:06:15.097Z,22.50
2022-09-11T02:09:05.580Z,22.40
2022-09-11T02:11:54.500Z,20.20
2022-09-11T02:14:47.968Z,23.17
2022-09-11T02:17:59.374Z,21.45
2022-09-11T02:20:47.630Z,20.45
2022-09-11T02:23:33.423Z,19.80
2022-09-11T02:26:23.083Z,19.25
2022-09-11T02:29:08.710Z,20.30
2022-09-11T02:31:54.888Z,19.10
2022-09-11T02:34:41.762Z,17.98
2022-09-11T02:37:26.990Z,17.05
2022-09-11T02:40:34.217Z,16.23
2022-09-11T02:43:47.400Z,15.68
2022-09-11T02:46:56.684Z,15.43
2022-09-11T02:49:59.230Z,15.93
2022-09-11T02:53:06.373Z,16.17
2022-09-11T02:56:26.151Z,17.48
2022-09-11T02:59:21.883Z,17.13
2022-09-11T03:02:12.615Z,16.38
2022-09-11T03:04:59.032Z,16.33
2022-09-11T03:07:44.324Z,16.30
2022-09-11T03:10:29.940Z,16.63
2022-09-11T03:13:16.674Z,17.10
2022-09-11T03:16:04.785Z,17.90
2022-09-11T03:18:50.555Z,17.35
2022-09-11T03:21:36.563Z,16.52
2022-09-11T03:24:22.068Z,17.73
2022-09-11T03:27:07.541Z,17.55
2022-09-11T03:29:53.336Z,15.48
2022-09-11T03:32:38.731Z,15.07
2022-09-11T03:35:25.351Z,15.02
2022-09-11T03:38:11.861Z,15.02
2022-09-11T03:40:58.425Z,14.38
2022-09-11T03:43:43.803Z,15.20
2022-09-11T03:46:29.467Z,16.25
2022-09-11T03:49:15.913Z,16.48
2022-09-11T03:52:01.707Z,15.60
2022-09-11T03:54:47.560Z,16.40
2022-09-11T03:57:36.890Z,15.73
2022-09-11T04:00:22.294Z,16.17
2022-09-11T04:03:07.692Z,14.90
2022-09-11T04:06:01.011Z,12.98
2022-09-11T04:08:49.427Z,12.82
2022-09-11T04:11:38.728Z,13.82
2022-09-11T04:14:28.115Z,13.27
2022-09-11T04:17:17.211Z,13.43
2022-09-11T04:20:04.059Z,14.68
2022-09-11T04:22:49.837Z,15.40
2022-09-11T04:25:35.391Z,14.80
2022-09-11T04:28:22.441Z,13.82
2022-09-11T04:31:08.200Z,13.90
2022-09-11T04:33:57.674Z,13.60
2022-09-11T04:36:44.433Z,15.48
2022-09-11T04:39:34.132Z,14.32
2022-09-11T04:42:20.992Z,14.30
2022-09-11T04:45:06.992Z,14.68
2022-09-11T04:47:53.109Z,16.55
2022-09-11T04:50:39.057Z,15.82
2022-09-11T04:53:39.815Z,14.88
2022-09-11T04:56:29.112Z,14.68
2022-09-11T04:59:18.128Z,14.25
2022-09-11T05:02:20.077Z,14.88
2022-09-11T05:05:09.812Z,14.95
2022-09-11T05:07:55.108Z,14.43
2022-09-11T05:10:42.836Z,14.32
2022-09-11T05:13:33.116Z,13.93
2022-09-11T05:16:21.623Z,13.73
2022-09-11T05:19:08.032Z,14.60
2022-09-11T05:21:55.082Z,13.35
2022-09-11T05:24:41.840Z,13.80
2022-09-11T05:27:27.020Z,14.65
2022-09-11T05:30:13.158Z,14.77
2022-09-11T05:32:59.124Z,14.05
2022-09-11T05:35:45.016Z,13.40
2022-09-11T05:38:30.579Z,13.20
2022-09-11T05:41:16.534Z,14.48
2022-09-11T05:44:02.197Z,14.90
2022-09-11T05:46:48.830Z,14.00
2022-09-11T05:49:35.087Z,13.30
2022-09-11T05:52:21.033Z,13.80
2022-09-11T05:55:06.398Z,13.38
2022-09-11T05:57:53.072Z,12.77
2022-09-11T06:00:38.801Z,12.30
2022-09-11T06:03:26.368Z,12.50
2022-09-11T06:06:13.316Z,12.13
2022-09-11T06:08:59.606Z,12.63
2022-09-11T06:11:45.238Z,12.32
2022-09-11T06:14:30.547Z,10.70
2022-09-11T06:17:16.013Z,9.68
2022-09-11T06:20:01.572Z,9.10
2022-09-11T06:22:48.418Z,8.60
2022-09-11T06:25:34.376Z,8.10
2022-09-11T06:28:23.881Z,7.50
2022-09-11T06:31:16.255Z,6.68
2022-09-11T06:34:02.250Z,6.47
2022-09-11T06:36:51.860Z,5.72
2022-09-11T06:39:38.153Z,6.00
2022-09-11T06:42:23.469Z,4.95
2022-09-11T06:45:09.985Z,4.25
2022-09-11T06:47:55.381Z,4.40
2022-09-11T06:50:41.116Z,3.78
2022-09-11T06:53:26.414Z,3.75
2022-09-11T06:56:17.299Z,3.75
2022-09-11T06:59:04.691Z,3.75
2022-09-11T07:01:51.957Z,3.17
2022-09-11T07:04:37.409Z,3.92
2022-09-11T07:07:23.186Z,4.82
2022-09-11T07:10:10.340Z,3.60
2022-09-11T07:12:56.164Z,3.30
2022-09-11T07:15:42.426Z,3.50
2022-09-11T07:18:34.131Z,3.20
2022-09-11T07:21:22.104Z,3.08
2022-09-11T07:24:10.874Z,3.60
2022-09-11T07:27:00.589Z,2.70
2022-09-11T07:29:50.569Z,2.80
2022-09-11T07:32:37.472Z,3.03
2022-09-11T07:35:23.226Z,2.70
2022-09-11T07:38:11.326Z,2.80
2022-09-11T07:40:58.491Z,2.60
2022-09-11T07:43:48.432Z,2.70
2022-09-11T07:46:35.688Z,2.20
2022-09-11T07:49:24.128Z,2.40
2022-09-11T07:52:14.844Z,2.25
2022-09-11T07:55:07.137Z,1.60
2022-09-11T07:57:54.233Z,1.85
2022-09-11T08:00:41.282Z,2.17
2022-09-11T08:03:35.773Z,1.88
2022-09-11T08:06:23.140Z,2.08
2022-09-11T08:09:15.074Z,1.80
2022-09-11T08:12:06.301Z,2.30
2022-09-11T08:14:54.436Z,1.70
2022-09-11T08:17:40.820Z,1.75
2022-09-11T08:20:26.321Z,1.65
2022-09-11T08:23:12.957Z,1.60
2022-09-11T08:26:26.276Z,1.65
2022-09-11T08:29:12.207Z,1.42
2022-09-11T08:32:02.186Z,1.40
2022-09-11T08:34:49.397Z,1.40
2022-09-11T08:37:34.797Z,1.35
2022-09-11T08:40:20.409Z,1.52
2022-09-11T08:43:05.527Z,1.45
2022-09-11T08:45:58.935Z,1.65
2022-09-11T08:48:59.034Z,1.70
2022-09-11T08:51:46.325Z,1.50
2022-09-11T08:54:34.861Z,1.40
2022-09-11T08:57:37.691Z,1.50
2022-09-11T09:00:32.076Z,1.42
2022-09-11T09:03:30.318Z,1.33
2022-09-11T09:06:49.548Z,1.40
2022-09-11T09:10:03.337Z,1.30
2022-09-11T09:13:03.894Z,1.48
2022-09-11T09:16:02.690Z,1.40
2022-09-11T09:18:57.992Z,1.50
2022-09-11T09:22:11.489Z,1.65
2022-09-11T09:25:09.876Z,1.63
2022-09-11T09:28:03.312Z,1.60
2022-09-11T09:31:00.163Z,1.75
2022-09-11T09:33:56.672Z,1.70
2022-09-11T09:37:14.074Z,1.60
2022-09-11T09:40:01.415Z,1.70
2022-09-11T09:43:20.463Z,1.40
2022-09-11T09:46:40.227Z,1.80
2022-09-11T09:49:29.694Z,1.70
2022-09-11T09:52:21.222Z,1.38
2022-09-11T09:55:15.077Z,1.30
2022-09-11T09:58:00.418Z,1.40
2022-09-11T10:00:46.048Z,1.52
2022-09-11T10:03:31.527Z,1.50
2022-09-11T10:06:21.965Z,1.60
2022-09-11T10:09:25.269Z,1.60
2022-09-11T10:12:17.869Z,1.17
2022-09-11T10:15:04.687Z,1.50
2022-09-11T10:17:53.420Z,1.60
2022-09-11T10:20:39.320Z,1.30
2022-09-11T10:23:26.519Z,1.10
2022-09-11T10:26:37.716Z,1.23
2022-09-11T10:29:32.090Z,1.40
2022-09-11T10:32:18.150Z,1.27
2022-09-11T10:35:09.519Z,1.05
2022-09-11T10:38:08.825Z,1.27
2022-09-11T10:41:03.181Z,1.15
2022-09-11T10:44:02.079Z,1.20
2022-09-11T10:47:04.561Z,1.13
2022-09-11T10:49:50.009Z,1.25
2022-09-11T10:52:50.962Z,1.20
2022-09-11T10:55:41.537Z,1.40
2022-09-11T10:58:33.466Z,1.30
2022-09-11T11:01:19.134Z,1.30
2022-09-11T11:04:08.201Z,1.20
2022-09-11T11:07:20.867Z,1.20
2022-09-11T11:10:16.382Z,1.58
2022-09-11T11:13:22.824Z,1.20
2022-09-11T11:16:28.331Z,1.30
2022-09-11T11:19:47.864Z,1.27
2022-09-11T11:23:06.137Z,1.63
2022-09-11T11:26:19.694Z,1.63
2022-09-11T11:29:19.894Z,1.60
2022-09-11T11:32:11.208Z,1.20
2022-09-11T11:35:14.056Z,1.50
2022-09-11T11:38:14.357Z,1.45
2022-09-11T11:41:07.800Z,1.48
2022-09-11T11:43:55.533Z,1.42
2022-09-11T11:46:48.719Z,1.30
2022-09-11T11:50:05.902Z,1.30
2022-09-11T11:53:02.838Z,1.20
2022-09-11T11:55:57.074Z,1.35
2022-09-11T11:58:46.988Z,1.40
2022-09-11T12:01:37.115Z,1.25
2022-09-11T12:05:02.037Z,1.40
2022-09-11T12:07:48.270Z,1.30
2022-09-11T12:10:38.023Z,1.48
2022-09-11T12:13:31.498Z,1.40
2022-09-11T12:16:28.468Z,1.58
2022-09-11T12:19:15.254Z,1.33
2022-09-11T12:22:06.313Z,1.20
2022-09-11T12:24:55.055Z,1.52
2022-09-11T12:27:40.229Z,1.42
2022-09-11T12:30:28.249Z,0.98
2022-09-11T12:33:41.676Z,1.20
2022-09-11T12:37:00.733Z,0.98
2022-09-11T12:39:53.076Z,0.98
2022-09-11T12:42:38.196Z,1.30
2022-09-11T12:45:35.498Z,1.35
2022-09-11T12:48:25.922Z,1.02
2022-09-11T12:51:29.489Z,1.00
2022-09-11T12:54:33.684Z,0.90
2022-09-11T12:57:35.101Z,1.00
2022-09-11T13:00:34.858Z,0.88
2022-09-11T13:03:28.007Z,1.15
2022-09-11T13:06:13.819Z,1.00
2022-09-11T13:09:00.857Z,1.00
2022-09-11T13:11:51.662Z,0.80
2022-09-11T13:14:57.725Z,1.10
2022-09-11T13:17:46.967Z,0.90
2022-09-11T13:20:32.416Z,1.00
2022-09-11T13:23:18.487Z,1.00
2022-09-11T13:26:07.659Z,1.00
2022-09-11T13:28:56.413Z,1.10
2022-09-11T13:31:43.297Z,1.00
2022-09-11T13:34:29.812Z,0.93
2022-09-11T13:37:31.196Z,1.20
2022-09-11T13:40:31.316Z,1.10
2022-09-11T13:43:21.573Z,1.10
2022-09-11T13:46:16.393Z,1.02
2022-09-11T13:49:11.867Z,1.00
2022-09-11T13:51:57.281Z,1.20
2022-09-11T13:54:58.556Z,1.25
2022-09-11T13:57:54.548Z,1.13
2022-09-11T14:00:48.555Z,0.88
2022-09-11T14:03:34.524Z,1.40
2022-09-11T14:06:20.829Z,1.10
2022-09-11T14:09:06.068Z,0.90
2022-09-11T14:11:51.547Z,1.20
2022-09-11T14:14:37.235Z,1.20
2022-09-11T14:17:23.067Z,1.15
2022-09-11T14:20:16.910Z,1.30
2022-09-11T14:23:06.195Z,1.27
2022-09-11T14:26:24.940Z,1.10
2022-09-11T14:29:23.152Z,1.10
2022-09-11T14:32:33.851Z,0.95
2022-09-11T14:35:19.151Z,1.20
2022-09-11T14:38:04.560Z,0.90
2022-09-11T14:40:59.241Z,0.77
2022-09-11T14:43:48.866Z,0.90
2022-09-11T14:46:34.726Z,1.10
2022-09-11T14:49:20.704Z,0.82
2022-09-11T14:52:06.647Z,0.90
2022-09-11T14:54:52.396Z,0.80
2022-09-11T14:57:37.490Z,0.70
2022-09-11T15:00:23.472Z,0.90
2022-09-11T15:03:08.956Z,0.80
2022-09-11T15:05:57.164Z,0.88
2022-09-11T15:08:42.971Z,0.80
2022-09-11T15:11:28.552Z,0.90
2022-09-11T15:14:27.576Z,0.90
2022-09-11T15:17:20.521Z,1.00
2022-09-11T15:20:08.985Z,1.17
2022-09-11T15:22:56.031Z,1.00
2022-09-11T15:25:41.221Z,1.20
2022-09-11T15:28:26.640Z,1.05
2022-09-11T15:31:12.547Z,1.00
2022-09-11T15:33:58.354Z,0.82
2022-09-11T15:36:43.531Z,1.10
2022-09-11T15:39:29.652Z,0.93
2022-09-11T15:42:14.865Z,1.00
2022-09-11T15:45:01.862Z,0.80
2022-09-11T15:47:47.819Z,0.90
2022-09-11T15:50:33.113Z,0.90
2022-09-11T15:53:18.405Z,1.00
2022-09-11T15:56:09.824Z,1.00
2022-09-11T15:58:58.608Z,1.45
2022-09-11T16:01:44.849Z,1.40
2022-09-11T16:04:32.122Z,1.20
2022-09-11T16:07:17.398Z,1.00
2022-09-11T16:10:03.247Z,1.05
2022-09-11T16:12:48.432Z,0.90
2022-09-11T16:15:35.545Z,0.80
2022-09-11T16:18:21.059Z,1.00
2022-09-11T16:21:06.929Z,1.15
2022-09-11T16:23:55.128Z,0.90
2022-09-11T16:26:44.150Z,0.70
2022-09-11T16:29:51.121Z,0.90
2022-09-11T16:32:38.075Z,1.10
2022-09-11T16:35:23.413Z,1.10
2022-09-11T16:38:08.657Z,1.42
2022-09-11T16:41:02.167Z,1.15
2022-09-11T16:43:50.252Z,1.20
2022-09-11T16:46:37.186Z,1.10
2022-09-11T16:49:23.943Z,1.13
2022-09-11T16:52:09.144Z,1.10
2022-09-11T16:54:54.616Z,1.20
2022-09-11T16:57:40.422Z,1.08
2022-09-11T17:00:25.538Z,1.20
2022-09-11T17:03:11.124Z,1.10
2022-09-11T17:05:56.548Z,1.15
2022-09-11T17:08:44.774Z,1.13
2022-09-11T17:11:33.344Z,1.00
2022-09-11T17:14:21.096Z,1.38
2022-09-11T17:17:06.108Z,1.20
2022-09-11T17:19:51.883Z,1.00
2022-09-11T17:22:39.077Z,1.35
2022-09-11T17:25:25.885Z,1.10
2022-09-11T17:28:10.945Z,1.00
2022-09-11T17:31:02.101Z,1.17
2022-09-11T17:33:48.585Z,0.90
2022-09-11T17:36:33.781Z,1.00
2022-09-11T17:39:21.271Z,1.30
2022-09-11T17:42:11.026Z,1.30
2022-09-11T17:44:59.984Z,1.10
2022-09-11T17:47:45.651Z,1.30
2022-09-11T17:50:31.272Z,1.10
2022-09-11T17:53:16.980Z,1.10
2022-09-11T17:56:06.861Z,1.20
2022-09-11T17:58:54.787Z,0.93
2022-09-11T18:01:39.993Z,1.30
2022-09-11T18:04:26.824Z,1.20
2022-09-11T18:07:12.478Z,1.30
2022-09-11T18:09:58.720Z,1.40
2022-09-11T18:12:43.913Z,1.40
2022-09-11T18:15:29.374Z,1.30
2022-09-11T18:18:15.291Z,1.42
2022-09-11T18:21:05.469Z,1.70
2022-09-11T18:23:51.408Z,2.08
2022-09-11T18:26:39.486Z,1.67
2022-09-11T18:29:25.831Z,1.70
2022-09-11T18:32:11.305Z,1.80
2022-09-11T18:35:00.022Z,1.63
2022-09-11T18:37:45.742Z,1.35
2022-09-11T18:40:32.397Z,1.80
2022-09-11T18:43:18.148Z,2.00
2022-09-11T18:46:03.798Z,1.67
2022-09-11T18:48:50.332Z,2.17
2022-09-11T18:51:36.125Z,2.05
2022-09-11T18:54:21.698Z,1.70
2022-09-11T18:57:07.300Z,1.80
2022-09-11T18:59:52.918Z,1.77
2022-09-11T19:02:38.708Z,1.70
2022-09-11T19:05:25.127Z,1.55
2022-09-11T19:08:10.885Z,1.60
2022-09-11T19:10:56.605Z,1.70
2022-09-11T19:13:42.680Z,1.42
2022-09-11T19:16:28.830Z,1.83
2022-09-11T19:19:14.365Z,2.00
2022-09-11T19:22:00.395Z,1.73
2022-09-11T19:24:46.040Z,1.80
2022-09-11T19:27:32.649Z,2.17
2022-09-11T19:30:19.098Z,2.10
2022-09-11T19:33:04.655Z,2.13
2022-09-11T19:36:00.151Z,1.90
2022-09-11T19:38:46.841Z,1.80
2022-09-11T19:41:38.039Z,1.70
2022-09-11T19:44:25.153Z,1.83
2022-09-11T19:47:11.254Z,2.20
2022-09-11T19:49:56.796Z,1.88
2022-09-11T19:52:42.502Z,2.00
2022-09-11T19:55:27.942Z,2.25
2022-09-11T19:58:13.895Z,2.33
2022-09-11T20:01:02.864Z,2.33
2022-09-11T20:03:49.133Z,2.50
2022-09-11T20:06:36.033Z,2.45
2022-09-11T20:09:37.260Z,2.55
2022-09-11T20:12:22.520Z,2.85
2022-09-11T20:15:08.406Z,3.15
2022-09-11T20:17:53.833Z,3.03
2022-09-11T20:20:43.461Z,2.90
2022-09-11T20:23:30.700Z,2.53
2022-09-11T20:26:21.822Z,2.15
2022-09-11T20:29:12.231Z,2.10
2022-09-11T20:32:00.544Z,2.00
2022-09-11T20:34:46.278Z,2.00
2022-09-11T20:37:32.475Z,2.00
2022-09-11T20:40:18.377Z,1.77
2022-09-11T20:43:03.611Z,1.55
2022-09-11T20:45:50.606Z,1.50
2022-09-11T20:48:36.300Z,1.50
2022-09-11T20:51:22.915Z,1.58
2022-09-11T20:54:08.816Z,1.50
2022-09-11T20:56:54.080Z,1.48
2022-09-11T20:59:39.762Z,1.73
2022-09-11T21:02:26.475Z,1.80
2022-09-11T21:05:12.156Z,1.80
2022-09-11T21:07:57.320Z,2.03
2022-09-11T21:10:42.788Z,2.00
2022-09-11T21:13:28.245Z,1.60
2022-09-11T21:16:15.318Z,2.20
2022-09-11T21:19:01.351Z,1.95
2022-09-11T21:21:46.861Z,2.00
2022-09-11T21:24:32.426Z,1.80
2022-09-11T21:27:17.964Z,1.80
2022-09-11T21:30:03.728Z,2.00
2022-09-11T21:32:49.255Z,1.67
2022-09-11T21:35:36.779Z,1.63
2022-09-11T21:38:25.312Z,1.88
2022-09-11T21:41:12.057Z,1.70
2022-09-11T21:43:57.520Z,1.80
2022-09-11T21:46:42.861Z,2.20
2022-09-11T21:49:28.195Z,2.38
2022-09-11T21:52:13.801Z,2.42
2022-09-11T21:54:59.232Z,2.50
2022-09-11T21:57:45.018Z,2.47
2022-09-11T22:00:30.609Z,2.30
2022-09-11T22:03:18.348Z,3.10
2022-09-11T22:06:08.175Z,2.72
2022-09-11T22:08:53.698Z,3.10
2022-09-11T22:11:38.890Z,2.95
2022-09-11T22:14:25.031Z,2.92
2022-09-11T22:17:11.871Z,2.70
2022-09-11T22:19:56.985Z,3.10
2022-09-11T22:22:42.632Z,3.20
2022-09-11T22:25:27.842Z,2.88
2022-09-11T22:28:13.618Z,3.42
2022-09-11T22:30:58.738Z,3.30
2022-09-11T22:33:44.497Z,3.45
2022-09-11T22:36:30.493Z,3.40
2022-09-11T22:39:15.969Z,3.53
2022-09-11T22:42:01.193Z,3.90
2022-09-11T22:44:46.748Z,3.58
2022-09-11T22:47:33.458Z,3.90
2022-09-11T22:50:18.708Z,3.40
2022-09-11T22:53:04.123Z,3.53
2022-09-11T22:55:49.723Z,4.20
2022-09-11T22:58:35.346Z,3.97
2022-09-11T23:01:22.715Z,3.83
2022-09-11T23:04:08.393Z,4.50
2022-09-11T23:07:12.322Z,4.55
2022-09-11T23:09:57.631Z,4.32
2022-09-11T23:12:44.356Z,4.82
2022-09-11T23:15:29.467Z,4.65
2022-09-11T23:18:15.308Z,4.90
2022-09-11T23:21:00.533Z,4.95
2022-09-11T23:23:54.747Z,4.80
2022-09-11T23:26:40.432Z,4.60
2022-09-11T23:29:25.610Z,4.80
2022-09-11T23:32:11.103Z,5.70
2022-09-11T23:34:56.523Z,5.72
2022-09-11T23:37:45.291Z,5.70
2022-09-11T23:40:33.416Z,5.80
2022-09-11T23:43:18.788Z,6.43
2022-09-11T23:46:04.509Z,6.03
2022-09-11T23:48:49.694Z,6.25
2022-09-11T23:51:34.976Z,6.40
2022-09-11T23:54:20.515Z,6.97
2022-09-11T23:57:06.126Z,7.00
2022-09-11T23:59:51.248Z,7.45
